Time;durP1;ratioP1;P1;durP2;ratioP2;P2;SDS_P1;SDS_P2;PMS_P1;PMS_P2;Temp;Humidity;BMP_temperature;BMP_pressure;BME280_temperature;BME280_humidity;BME280_pressure;Samples;Min_cycle;Max_cycle;Signal;HPM_P1;HPM_P2
2023/12/13 00:01:13;;;;;;;4.43;1.27;;;28.50;99.90;;;;;;4973799;28;20198;-75
2023/12/13 00:03:44;;;;;;;6.05;1.27;;;28.40;99.90;;;;;;4971821;28;20200;-74
2023/12/13 00:06:15;;;;;;;4.88;1.00;;;28.50;99.90;;;;;;4974438;28;20189;-75
2023/12/13 00:08:47;;;;;;;5.20;1.23;;;28.90;99.90;;;;;;4975333;28;20196;-75
2023/12/13 00:11:18;;;;;;;5.40;1.20;;;28.80;99.90;;;;;;4974377;28;20192;-75
2023/12/13 00:13:49;;;;;;;6.72;1.13;;;29.00;99.90;;;;;;4974246;28;20199;-74
2023/12/13 00:16:21;;;;;;;5.63;1.17;;;29.10;99.90;;;;;;4966059;28;20197;-75
2023/12/13 00:18:51;;;;;;;5.63;1.17;;;29.50;99.90;;;;;;4966606;28;20238;-74
2023/12/13 00:21:22;;;;;;;7.00;1.35;;;29.40;99.90;;;;;;4974854;28;20196;-74
2023/12/13 00:23:55;;;;;;;10.73;1.20;;;29.40;99.90;;;;;;4973675;28;20215;-74
2023/12/13 00:26:26;;;;;;;8.30;1.27;;;29.30;99.90;;;;;;4974659;28;20234;-75
2023/12/13 00:28:57;;;;;;;5.55;1.30;;;29.00;99.90;;;;;;4958021;28;20244;-76
2023/12/13 00:31:28;;;;;;;4.15;1.23;;;28.90;99.90;;;;;;4974223;28;20666;-75
2023/12/13 00:33:59;;;;;;;7.28;1.35;;;28.70;99.90;;;;;;4968948;28;20195;-76
2023/12/13 00:36:29;;;;;;;7.40;1.30;;;28.70;99.90;;;;;;4966846;28;20207;-75
2023/12/13 00:39:03;;;;;;;6.22;1.10;;;28.80;99.90;;;;;;4974545;28;20196;-75
2023/12/13 00:41:34;;;;;;;6.18;1.50;;;28.80;99.90;;;;;;4974813;28;20283;-76
2023/12/13 00:44:05;;;;;;;8.15;1.40;;;29.00;99.90;;;;;;4972323;28;20196;-75
2023/12/13 00:46:36;;;;;;;7.70;1.52;;;29.10;99.90;;;;;;4965098;28;20197;-74
2023/12/13 00:49:07;;;;;;;11.50;2.25;;;29.00;99.90;;;;;;4969741;28;20649;-74
2023/12/13 00:51:37;;;;;;;7.43;1.38;;;29.10;99.90;;;;;;4974784;28;20197;-75
2023/12/13 00:54:10;;;;;;;9.18;1.67;;;29.00;99.90;;;;;;4974984;28;20188;-74
2023/12/13 00:56:41;;;;;;;8.73;1.70;;;28.80;99.90;;;;;;4973125;28;20193;-75
2023/12/13 00:59:11;;;;;;;8.50;1.77;;;29.00;99.90;;;;;;4974110;28;20188;-75
2023/12/13 01:01:48;;;;;;;9.70;2.10;;;29.20;99.90;;;;;;4973357;28;20204;-75
2023/12/13 01:04:20;;;;;;;8.95;1.60;;;29.10;99.90;;;;;;4974105;28;20643;-75
2023/12/13 01:06:50;;;;;;;4.38;1.25;;;29.30;99.90;;;;;;4970521;28;20200;-74
2023/12/13 01:09:23;;;;;;;7.55;1.60;;;29.40;99.90;;;;;;4974149;28;20235;-75
2023/12/13 01:11:54;;;;;;;7.70;1.48;;;29.00;99.90;;;;;;4974473;28;20196;-74
2023/12/13 01:14:25;;;;;;;10.05;2.45;;;28.40;99.90;;;;;;4974630;28;20699;-75
2023/12/13 01:16:56;;;;;;;6.32;1.48;;;27.90;99.90;;;;;;4971736;28;20200;-75
2023/12/13 01:19:27;;;;;;;8.88;1.60;;;27.70;99.90;;;;;;4974037;28;20278;-74
2023/12/13 01:21:58;;;;;;;5.97;1.30;;;27.30;99.90;;;;;;4974184;28;20200;-76
2023/12/13 01:24:30;;;;;;;7.28;1.40;;;27.40;99.90;;;;;;4974145;28;20231;-73
2023/12/13 01:27:01;;;;;;;5.70;1.30;;;27.50;99.90;;;;;;4974545;28;20228;-74
2023/12/13 01:29:34;;;;;;;7.38;1.33;;;27.70;99.90;;;;;;4974496;28;20223;-76
2023/12/13 01:32:05;;;;;;;9.50;1.63;;;28.20;99.90;;;;;;4974071;28;20196;-76
2023/12/13 01:34:35;;;;;;;7.43;1.70;;;28.50;99.90;;;;;;4974201;28;20196;-75
2023/12/13 01:37:06;;;;;;;7.53;1.67;;;28.50;99.90;;;;;;4976822;28;20192;-75
2023/12/13 01:39:39;;;;;;;8.55;1.40;;;28.40;99.90;;;;;;4974030;28;20203;-76
2023/12/13 01:42:10;;;;;;;8.88;1.52;;;28.40;99.90;;;;;;4974466;28;20196;-75
2023/12/13 01:44:41;;;;;;;7.55;1.38;;;28.60;99.90;;;;;;4974310;28;20279;-76
2023/12/13 01:47:13;;;;;;;7.65;1.50;;;29.00;99.90;;;;;;4974018;28;20235;-74
2023/12/13 01:49:45;;;;;;;6.68;1.42;;;28.90;99.90;;;;;;4973422;28;20716;-74
2023/12/13 01:52:17;;;;;;;7.63;1.67;;;28.80;99.90;;;;;;4975440;28;20195;-76
2023/12/13 01:54:51;;;;;;;7.03;1.50;;;28.60;99.90;;;;;;4978110;28;20192;-75
2023/12/13 01:57:23;;;;;;;5.95;1.40;;;28.80;99.90;;;;;;4977204;28;20246;-75
2023/12/13 01:59:54;;;;;;;8.18;1.52;;;29.00;99.90;;;;;;4978049;28;20276;-75
2023/12/13 02:02:25;;;;;;;6.45;1.40;;;29.00;99.90;;;;;;4977832;28;20584;-76
2023/12/13 02:04:57;;;;;;;8.40;1.55;;;29.00;99.90;;;;;;4977677;28;20200;-75
2023/12/13 02:07:28;;;;;;;8.50;1.48;;;29.00;99.90;;;;;;4977777;28;20579;-76
2023/12/13 02:10:01;;;;;;;7.95;1.52;;;29.20;99.90;;;;;;4974124;28;20239;-75
2023/12/13 02:12:33;;;;;;;6.53;1.65;;;29.20;99.90;;;;;;4972176;28;20200;-75
2023/12/13 02:15:04;;;;;;;9.55;1.63;;;29.10;99.90;;;;;;4978103;28;20283;-74
2023/12/13 02:17:35;;;;;;;6.32;1.50;;;29.20;99.90;;;;;;4976788;28;20859;-76
2023/12/13 02:20:06;;;;;;;6.10;1.55;;;29.10;99.90;;;;;;4973377;28;20192;-76
2023/12/13 02:22:39;;;;;;;12.57;2.20;;;28.80;99.90;;;;;;4958025;28;20297;-75
2023/12/13 02:25:17;;;;;;;6.32;1.83;;;28.90;99.90;;;;;;4967398;28;20636;-75
2023/12/13 02:27:48;;;;;;;7.00;1.88;;;29.00;99.90;;;;;;4977208;28;20280;-75
2023/12/13 02:30:19;;;;;;;6.72;1.50;;;29.20;99.90;;;;;;4972806;28;20189;-75
2023/12/13 02:32:50;;;;;;;7.80;1.67;;;29.30;99.90;;;;;;4977117;28;20200;-75
2023/12/13 02:35:21;;;;;;;5.78;1.40;;;29.10;99.90;;;;;;4971339;28;20193;-75
2023/12/13 02:37:54;;;;;;;4.68;1.45;;;29.00;99.90;;;;;;4972109;28;20227;-76
2023/12/13 02:40:25;;;;;;;6.72;1.60;;;29.20;99.90;;;;;;4969639;28;20581;-75
2023/12/13 02:42:55;;;;;;;10.45;1.70;;;29.30;99.90;;;;;;4957796;28;20563;-76
2023/12/13 02:45:27;;;;;;;5.40;1.48;;;29.30;99.90;;;;;;4958950;28;20571;-75
2023/12/13 02:47:59;;;;;;;6.55;1.67;;;29.30;99.90;;;;;;4996163;28;20195;-75
2023/12/13 02:50:30;;;;;;;7.78;1.70;;;29.10;99.90;;;;;;4996071;28;20640;-74
2023/12/13 02:53:03;;;;;;;8.30;1.73;;;28.90;99.90;;;;;;4996353;28;20572;-75
2023/12/13 02:55:33;;;;;;;5.80;1.85;;;28.90;99.90;;;;;;4996624;28;20191;-75
2023/12/13 02:58:04;;;;;;;7.43;1.90;;;28.70;99.90;;;;;;4978935;28;20216;-74
2023/12/13 03:00:35;;;;;;;10.32;1.80;;;28.70;99.90;;;;;;4977081;28;20279;-76
2023/12/13 03:03:06;;;;;;;7.68;1.80;;;28.50;99.90;;;;;;4975834;28;20189;-74
2023/12/13 03:05:38;;;;;;;6.80;1.83;;;28.50;99.90;;;;;;4976137;28;20704;-75
2023/12/13 03:08:12;;;;;;;7.65;1.90;;;28.60;99.90;;;;;;4970456;28;20680;-77
2023/12/13 03:10:42;;;;;;;7.82;2.10;;;28.60;99.90;;;;;;4957503;28;20193;-75
2023/12/13 03:13:13;;;;;;;9.38;1.90;;;28.50;99.90;;;;;;4969683;28;20192;-74
2023/12/13 03:15:44;;;;;;;9.07;2.05;;;28.50;99.90;;;;;;4967607;28;20553;-73
2023/12/13 03:18:15;;;;;;;7.10;1.92;;;28.60;99.90;;;;;;4971479;28;20232;-76
2023/12/13 03:20:47;;;;;;;7.50;1.55;;;28.40;99.90;;;;;;4976318;28;20218;-74
2023/12/13 03:23:20;;;;;;;6.18;1.95;;;28.40;99.90;;;;;;4975205;28;20215;-74
2023/12/13 03:25:51;;;;;;;8.25;1.83;;;28.40;99.90;;;;;;4981857;28;20196;-75
2023/12/13 03:28:21;;;;;;;8.05;1.88;;;28.60;99.90;;;;;;4976038;28;20188;-74
2023/12/13 03:30:53;;;;;;;9.07;1.90;;;28.80;99.90;;;;;;4976190;28;20199;-74
2023/12/13 03:33:25;;;;;;;4.85;1.90;;;28.80;99.90;;;;;;4974901;28;20659;-75
2023/12/13 03:35:56;;;;;;;6.50;2.10;;;28.60;99.90;;;;;;4976710;28;20188;-75
2023/12/13 03:38:29;;;;;;;9.88;2.10;;;28.50;99.90;;;;;;4975991;28;20212;-74
2023/12/13 03:41:00;;;;;;;12.90;2.22;;;28.40;99.90;;;;;;4975805;28;20231;-75
2023/12/13 03:43:31;;;;;;;8.75;2.17;;;28.40;99.90;;;;;;4976534;28;20279;-74
2023/12/13 03:46:01;;;;;;;7.13;2.22;;;28.40;99.90;;;;;;4969723;28;20212;-75
2023/12/13 03:48:32;;;;;;;16.08;2.88;;;28.30;99.90;;;;;;4975447;28;20185;-75
2023/12/13 03:51:04;;;;;;;8.57;2.20;;;28.50;99.90;;;;;;4974480;28;20655;-76
2023/12/13 03:53:39;;;;;;;10.68;2.80;;;28.50;99.90;;;;;;4975920;28;20192;-75
2023/12/13 03:56:10;;;;;;;7.88;2.67;;;28.40;99.90;;;;;;4970511;28;20198;-75
2023/12/13 04:05:25;;;;;;;6.93;2.90;;;28.40;99.90;;;;;;4957025;29;20668;-74
2023/12/13 04:07:56;;;;;;;7.22;2.85;;;28.40;99.90;;;;;;4976513;28;20196;-75
2023/12/13 04:13:56;;;;;;;10.15;2.90;;;28.60;99.90;;;;;;4971893;28;20280;-73
2023/12/13 04:16:28;;;;;;;10.93;3.40;;;28.60;99.90;;;;;;4974821;28;20194;-75
2023/12/13 04:33:10;;;;;;;8.45;3.15;;;28.90;99.90;;;;;;4964084;28;20188;-75
2023/12/13 04:36:18;;;;;;;9.35;3.55;;;28.80;99.90;;;;;;4955927;28;20275;-76
2023/12/13 04:42:11;;;;;;;10.60;3.53;;;28.50;99.90;;;;;;4957006;28;20234;-75
2023/12/13 04:44:42;;;;;;;7.25;3.10;;;28.30;99.90;;;;;;4963669;28;20200;-76
2023/12/13 04:47:14;;;;;;;8.07;3.25;;;28.50;99.90;;;;;;4970589;28;20196;-77
2023/12/13 04:49:47;;;;;;;9.57;3.40;;;28.30;99.90;;;;;;4974443;28;20279;-75
2023/12/13 04:52:17;;;;;;;10.95;3.47;;;28.20;99.90;;;;;;4975163;28;20658;-76
2023/12/13 04:54:48;;;;;;;6.35;3.20;;;28.10;99.90;;;;;;4972174;28;20658;-75
2023/12/13 04:57:19;;;;;;;9.63;3.10;;;28.10;99.90;;;;;;4967369;28;20286;-76
2023/12/13 04:59:50;;;;;;;9.40;3.20;;;28.20;99.90;;;;;;4978416;28;20621;-75
2023/12/13 05:02:20;;;;;;;10.38;3.55;;;28.10;99.90;;;;;;4973923;28;20202;-75
2023/12/13 05:04:53;;;;;;;10.60;3.25;;;28.10;99.90;;;;;;4973553;28;20275;-75
2023/12/13 05:07:27;;;;;;;7.15;3.58;;;28.20;99.90;;;;;;4974759;28;20188;-75
2023/12/13 05:09:58;;;;;;;8.25;3.40;;;28.20;99.90;;;;;;4974287;28;20189;-75
2023/12/13 05:12:29;;;;;;;10.55;4.15;;;28.10;99.90;;;;;;4975322;28;20196;-75
2023/12/13 05:15:00;;;;;;;11.35;3.70;;;28.10;99.90;;;;;;4973938;28;20274;-75
2023/12/13 05:17:30;;;;;;;9.45;3.20;;;28.20;99.90;;;;;;4974493;28;20243;-76
2023/12/13 05:20:03;;;;;;;9.30;3.22;;;28.20;99.90;;;;;;4975415;28;20219;-74
2023/12/13 05:22:34;;;;;;;7.18;3.15;;;28.20;99.90;;;;;;4993820;28;20310;-74
2023/12/13 05:25:06;;;;;;;8.98;3.30;;;27.90;99.90;;;;;;4990237;28;20188;-74
2023/12/13 05:27:36;;;;;;;10.00;3.55;;;27.80;99.90;;;;;;4965875;28;20297;-74
2023/12/13 05:30:08;;;;;;;6.72;3.42;;;27.80;99.90;;;;;;4979587;28;20211;-74
2023/12/13 05:32:39;;;;;;;9.20;2.67;;;27.90;99.90;;;;;;4993601;28;20188;-74
2023/12/13 05:35:12;;;;;;;9.00;3.05;;;27.90;99.90;;;;;;4977891;28;20250;-75
2023/12/13 05:37:43;;;;;;;7.60;2.50;;;27.80;99.90;;;;;;4956634;28;20211;-74
2023/12/13 05:40:14;;;;;;;8.00;2.53;;;27.70;99.90;;;;;;4960183;28;20311;-74
2023/12/13 05:42:45;;;;;;;5.80;2.60;;;27.60;99.90;;;;;;4973713;28;20189;-75
2023/12/13 05:45:16;;;;;;;7.43;2.75;;;27.60;99.90;;;;;;4974241;28;20224;-74
2023/12/13 05:47:47;;;;;;;7.43;2.40;;;27.70;99.90;;;;;;4973313;28;20192;-76
2023/12/13 05:50:21;;;;;;;7.07;2.08;;;27.60;99.90;;;;;;4966059;28;20218;-74
2023/12/13 05:52:52;;;;;;;7.57;2.28;;;27.40;99.90;;;;;;4974320;28;20203;-76
2023/12/13 05:55:23;;;;;;;8.73;2.30;;;27.30;99.90;;;;;;4971859;28;20200;-74
2023/12/13 05:57:54;;;;;;;7.22;2.00;;;27.30;99.90;;;;;;4974142;28;20727;-74
2023/12/13 06:00:25;;;;;;;8.48;2.00;;;27.20;99.90;;;;;;4973845;28;20223;-74
2023/12/13 06:02:56;;;;;;;7.22;2.10;;;27.20;99.90;;;;;;4973789;28;20633;-75
2023/12/13 06:05:29;;;;;;;6.57;2.10;;;27.20;99.90;;;;;;4974221;28;20192;-77
2023/12/13 06:08:00;;;;;;;8.68;1.98;;;27.10;99.90;;;;;;4974112;28;20192;-74
2023/12/13 06:10:31;;;;;;;8.60;2.00;;;26.90;99.90;;;;;;4974070;28;20193;-75
2023/12/13 06:13:01;;;;;;;6.68;1.70;;;26.80;99.90;;;;;;4973693;28;20185;-73
2023/12/13 06:15:32;;;;;;;10.38;1.85;;;26.70;99.90;;;;;;4973678;28;20189;-74
2023/12/13 06:18:03;;;;;;;7.53;1.80;;;26.70;99.90;;;;;;4973893;28;20196;-75
2023/12/13 06:20:36;;;;;;;8.93;2.08;;;26.60;99.90;;;;;;4962902;28;20222;-76
2023/12/13 06:23:07;;;;;;;7.47;1.75;;;26.60;99.90;;;;;;4967811;28;20231;-74
2023/12/13 06:25:38;;;;;;;7.22;1.83;;;26.60;99.90;;;;;;4967933;28;20315;-74
2023/12/13 06:28:09;;;;;;;8.90;1.85;;;26.60;99.90;;;;;;4973684;28;20199;-73
2023/12/13 06:30:39;;;;;;;8.30;2.10;;;26.60;99.90;;;;;;4973646;28;20219;-73
2023/12/13 06:33:10;;;;;;;9.57;4.10;;;26.60;99.90;;;;;;4971783;28;20289;-77
2023/12/13 06:35:43;;;;;;;8.45;1.98;;;26.60;99.90;;;;;;4973927;28;20192;-74
2023/12/13 06:38:14;;;;;;;8.43;2.03;;;26.70;99.90;;;;;;4974622;28;20196;-76
2023/12/13 06:40:45;;;;;;;10.63;2.30;;;26.70;99.90;;;;;;4976403;28;20215;-76
2023/12/13 06:43:16;;;;;;;6.57;1.90;;;26.70;99.90;;;;;;4974299;28;20215;-75
2023/12/13 06:45:47;;;;;;;10.73;2.08;;;26.70;99.90;;;;;;4976338;28;20188;-75
2023/12/13 06:48:18;;;;;;;11.32;2.03;;;26.80;99.90;;;;;;4965842;28;20188;-76
2023/12/13 06:50:50;;;;;;;10.70;2.05;;;26.80;99.90;;;;;;4976634;28;20712;-75
2023/12/13 06:53:21;;;;;;;6.70;1.70;;;26.80;99.90;;;;;;4976654;28;20193;-75
2023/12/13 06:55:52;;;;;;;8.80;1.95;;;26.80;99.90;;;;;;4976952;28;20188;-75
2023/12/13 06:58:22;;;;;;;7.60;1.88;;;26.90;99.90;;;;;;4974106;28;20675;-77
2023/12/13 07:00:53;;;;;;;8.23;1.88;;;26.90;99.90;;;;;;4974254;28;20575;-75
2023/12/13 07:03:24;;;;;;;6.65;1.60;;;26.80;99.90;;;;;;4974803;28;20200;-76
2023/12/13 07:05:57;;;;;;;11.90;1.65;;;26.80;99.90;;;;;;4966077;28;20283;-77
2023/12/13 07:08:28;;;;;;;7.07;1.67;;;26.80;99.90;;;;;;4969746;28;20228;-76
2023/12/13 07:10:59;;;;;;;8.52;1.58;;;26.80;99.90;;;;;;4973112;28;20283;-77
2023/12/13 07:13:29;;;;;;;12.20;2.00;;;26.80;99.90;;;;;;4972530;28;20197;-80
2023/12/13 07:16:00;;;;;;;11.20;2.13;;;26.80;99.90;;;;;;4972779;28;20717;-77
2023/12/13 07:18:31;;;;;;;11.50;2.13;;;26.60;99.90;;;;;;4975437;28;20276;-78
2023/12/13 07:21:04;;;;;;;9.85;2.15;;;26.60;99.90;;;;;;4976076;28;20196;-76
2023/12/13 07:23:35;;;;;;;11.35;2.13;;;26.60;99.90;;;;;;4969272;28;20220;-76
2023/12/13 07:26:06;;;;;;;11.02;2.40;;;26.50;99.90;;;;;;4975324;28;20244;-76
2023/12/13 07:28:37;;;;;;;7.63;2.08;;;26.40;99.90;;;;;;4974892;28;20626;-76
2023/12/13 07:31:08;;;;;;;9.30;1.88;;;26.30;99.90;;;;;;4973515;28;20279;-76
2023/12/13 07:33:41;;;;;;;7.97;1.88;;;26.20;99.90;;;;;;4975829;28;20267;-77
2023/12/13 07:36:15;;;;;;;10.38;2.28;;;26.10;99.90;;;;;;4974355;28;20324;-75
2023/12/13 07:38:46;;;;;;;11.68;2.20;;;26.10;99.90;;;;;;4968001;28;20575;-79
2023/12/13 07:41:17;;;;;;;15.43;2.30;;;26.10;99.90;;;;;;4971436;28;20203;-75
2023/12/13 07:43:48;;;;;;;12.93;2.03;;;26.00;99.90;;;;;;4969489;28;20285;-75
2023/12/13 07:46:19;;;;;;;9.32;1.90;;;26.00;99.90;;;;;;4975920;28;20204;-76
2023/12/13 07:48:51;;;;;;;10.63;2.05;;;26.00;99.90;;;;;;4974947;28;20200;-76
2023/12/13 07:51:24;;;;;;;9.63;1.83;;;25.90;99.90;;;;;;4969865;28;20201;-76
2023/12/13 07:53:54;;;;;;;7.35;1.70;;;25.80;99.90;;;;;;4975530;28;20208;-76
2023/12/13 07:56:25;;;;;;;11.63;1.90;;;25.70;99.90;;;;;;4974435;28;20208;-76
2023/12/13 07:58:56;;;;;;;9.70;2.05;;;25.70;99.90;;;;;;4974571;28;20210;-76
2023/12/13 08:01:27;;;;;;;11.52;2.33;;;25.60;99.90;;;;;;4975108;28;20201;-76
2023/12/13 08:03:58;;;;;;;11.63;1.90;;;25.60;99.90;;;;;;4972534;28;20282;-77
2023/12/13 08:06:31;;;;;;;11.35;1.95;;;25.50;99.90;;;;;;4969886;28;20204;-76
2023/12/13 08:09:02;;;;;;;9.23;2.00;;;25.50;99.90;;;;;;4974012;28;20754;-76
2023/12/13 08:11:33;;;;;;;11.13;2.00;;;25.40;99.90;;;;;;4973824;28;20652;-76
2023/12/13 08:14:04;;;;;;;10.57;2.13;;;25.40;99.90;;;;;;4972295;28;20291;-76
2023/12/13 08:16:35;;;;;;;15.27;2.20;;;25.30;99.90;;;;;;4970282;28;20203;-76
2023/12/13 08:19:06;;;;;;;10.45;2.00;;;25.30;99.90;;;;;;4969459;28;20223;-76
2023/12/13 08:21:40;;;;;;;9.35;1.98;;;25.20;99.90;;;;;;4974477;28;20203;-75
2023/12/13 08:24:12;;;;;;;10.02;2.28;;;25.20;99.90;;;;;;4974338;28;20203;-76
2023/12/13 08:26:43;;;;;;;12.30;2.08;;;25.20;99.90;;;;;;4974493;28;20259;-76
2023/12/13 08:29:14;;;;;;;11.10;2.30;;;25.10;99.90;;;;;;4972399;28;20291;-76
2023/12/13 08:31:45;;;;;;;9.32;2.20;;;25.10;99.90;;;;;;4973792;28;20291;-75
2023/12/13 08:34:15;;;;;;;14.93;2.28;;;25.00;99.90;;;;;;4966747;28;20213;-75
2023/12/13 08:36:48;;;;;;;11.88;2.45;;;25.00;99.90;;;;;;4974533;28;20208;-75
2023/12/13 08:39:21;;;;;;;10.80;2.28;;;25.00;99.90;;;;;;4973886;28;20220;-75
2023/12/13 08:41:52;;;;;;;13.60;2.30;;;25.00;99.90;;;;;;4973199;28;20200;-75
2023/12/13 08:44:24;;;;;;;11.05;2.53;;;24.90;99.90;;;;;;4972831;28;20208;-76
2023/12/13 08:46:55;;;;;;;12.93;2.10;;;24.90;99.90;;;;;;4973893;28;20239;-76
2023/12/13 08:49:25;;;;;;;11.60;2.22;;;24.80;99.90;;;;;;4973205;28;20282;-75
2023/12/13 08:51:58;;;;;;;10.27;1.95;;;24.80;99.90;;;;;;4971725;28;20210;-75
2023/12/13 08:54:29;;;;;;;8.63;2.00;;;24.80;99.90;;;;;;4972821;28;20200;-76
2023/12/13 08:57:00;;;;;;;16.40;2.17;;;24.80;99.90;;;;;;4971770;28;20204;-75
2023/12/13 08:59:31;;;;;;;13.88;2.47;;;24.80;99.90;;;;;;4973025;28;20224;-76
2023/12/13 09:02:02;;;;;;;11.60;2.40;;;24.70;99.90;;;;;;4974324;28;20307;-76
2023/12/13 09:04:33;;;;;;;14.40;2.20;;;24.70;99.90;;;;;;4969731;28;20201;-76
2023/12/13 09:07:06;;;;;;;9.80;1.98;;;24.70;99.90;;;;;;4973545;28;20241;-75
2023/12/13 09:09:38;;;;;;;9.27;2.03;;;24.70;99.90;;;;;;4973244;28;20288;-75
2023/12/13 09:12:09;;;;;;;11.88;2.10;;;24.70;99.90;;;;;;4974441;28;20206;-75
2023/12/13 09:14:40;;;;;;;9.75;2.30;;;24.70;99.90;;;;;;4973582;28;20287;-75
2023/12/13 09:17:11;;;;;;;11.60;2.03;;;24.70;99.90;;;;;;4973696;28;20204;-75
2023/12/13 09:19:42;;;;;;;11.38;2.25;;;24.60;99.90;;;;;;4974168;28;20262;-75
2023/12/13 09:22:16;;;;;;;12.13;2.45;;;24.60;99.90;;;;;;4973769;28;20310;-75
2023/12/13 09:24:47;;;;;;;9.75;2.00;;;24.60;99.90;;;;;;4966112;28;20208;-75
2023/12/13 09:27:17;;;;;;;8.68;1.95;;;24.60;99.90;;;;;;4974264;28;20717;-75
2023/12/13 09:29:48;;;;;;;15.13;2.65;;;24.60;99.90;;;;;;4973968;28;20239;-75
2023/12/13 09:32:19;;;;;;;11.50;2.00;;;24.60;99.90;;;;;;4973942;28;20216;-75
2023/12/13 09:34:51;;;;;;;12.25;2.42;;;24.60;99.90;;;;;;4965617;28;20218;-75
2023/12/13 09:37:23;;;;;;;9.50;2.17;;;24.60;99.90;;;;;;4974032;28;20270;-75
2023/12/13 09:39:54;;;;;;;6.25;1.83;;;24.60;99.90;;;;;;4973456;28;20211;-74
2023/12/13 09:42:26;;;;;;;11.00;1.83;;;24.60;99.90;;;;;;4973086;28;20200;-75
2023/12/13 09:44:59;;;;;;;13.20;2.58;;;24.60;99.90;;;;;;4966593;28;20196;-75
2023/12/13 09:47:32;;;;;;;12.07;2.40;;;24.60;99.90;;;;;;4972712;28;20200;-75
2023/12/13 09:50:02;;;;;;;14.13;2.35;;;24.60;99.90;;;;;;4971707;28;20664;-75
2023/12/13 09:52:36;;;;;;;8.25;2.15;;;24.60;99.90;;;;;;4970994;28;20235;-75
2023/12/13 09:55:10;;;;;;;11.98;2.30;;;24.60;99.90;;;;;;4972008;28;20298;-74
2023/12/13 09:57:41;;;;;;;12.23;2.30;;;24.50;99.90;;;;;;4974064;28;20212;-75
2023/12/13 10:00:13;;;;;;;11.43;2.42;;;24.50;99.90;;;;;;4972666;28;20683;-75
2023/12/13 10:02:45;;;;;;;8.25;2.00;;;24.50;99.90;;;;;;4961124;28;20200;-75
2023/12/13 10:05:18;;;;;;;9.50;2.30;;;24.50;99.90;;;;;;4972775;28;20206;-75
2023/12/13 10:07:51;;;;;;;7.68;2.40;;;24.60;99.90;;;;;;4972643;28;20200;-74
2023/12/13 10:10:22;;;;;;;8.80;2.03;;;24.60;99.90;;;;;;4973261;28;20287;-74
2023/12/13 10:12:54;;;;;;;15.07;2.60;;;24.60;99.90;;;;;;4973312;28;20207;-75
2023/12/13 10:15:25;;;;;;;12.07;2.40;;;24.60;99.90;;;;;;4976884;28;20287;-75
2023/12/13 10:17:57;;;;;;;12.13;2.30;;;24.60;99.90;;;;;;4971622;28;20197;-74
2023/12/13 10:20:28;;;;;;;9.73;2.00;;;24.60;99.90;;;;;;4971933;28;20216;-74
2023/12/13 10:23:01;;;;;;;6.40;2.22;;;24.60;99.90;;;;;;4973874;28;20224;-74
2023/12/13 10:25:33;;;;;;;7.85;2.00;;;24.60;99.90;;;;;;4973621;28;20763;-75
2023/12/13 10:28:07;;;;;;;13.45;2.20;;;24.60;99.90;;;;;;4976980;28;20255;-75
2023/12/13 10:30:38;;;;;;;10.07;2.03;;;24.70;99.90;;;;;;4977061;28;20287;-75
2023/12/13 10:33:08;;;;;;;8.63;2.20;;;24.70;99.90;;;;;;4976510;28;20286;-75
2023/12/13 10:35:39;;;;;;;8.40;2.20;;;24.70;99.90;;;;;;4975366;28;20196;-75
2023/12/13 10:38:16;;;;;;;11.30;2.30;;;24.70;99.90;;;;;;4976534;28;20200;-75
2023/12/13 10:40:47;;;;;;;9.68;2.17;;;24.70;99.90;;;;;;4976148;28;20211;-75
2023/12/13 10:43:19;;;;;;;11.15;2.50;;;24.70;99.90;;;;;;4976329;28;20204;-75
2023/12/13 10:46:01;;;;;;;7.20;1.98;;;24.80;99.90;;;;;;4976263;28;20632;-75
2023/12/13 10:48:35;;;;;;;8.02;2.13;;;24.80;99.90;;;;;;4976709;28;20196;-75
2023/12/13 10:51:07;;;;;;;8.70;2.00;;;24.80;99.90;;;;;;4975562;28;20204;-74
2023/12/13 10:53:41;;;;;;;10.40;2.17;;;24.80;99.90;;;;;;4975615;28;20200;-75
2023/12/13 10:56:13;;;;;;;10.13;2.30;;;24.80;99.90;;;;;;4973871;28;20195;-74
2023/12/13 10:58:45;;;;;;;9.43;2.58;;;24.80;99.90;;;;;;4971903;28;20578;-75
2023/12/13 11:01:18;;;;;;;11.00;2.42;;;24.80;99.90;;;;;;4966069;28;20213;-74
2023/12/13 11:03:51;;;;;;;8.48;2.10;;;24.80;99.90;;;;;;4973477;28;20192;-75
2023/12/13 11:06:22;;;;;;;7.90;2.30;;;24.80;99.90;;;;;;4971953;28;20204;-75
2023/12/13 11:08:55;;;;;;;7.18;1.77;;;24.80;99.90;;;;;;4959872;28;20197;-74
2023/12/13 11:11:31;;;;;;;9.20;2.20;;;24.80;99.90;;;;;;4976666;28;20537;-75
2023/12/13 11:14:03;;;;;;;9.23;2.45;;;24.90;99.90;;;;;;4977437;28;20199;-76
2023/12/13 11:16:42;;;;;;;8.07;2.30;;;24.90;99.90;;;;;;4976036;28;20193;-75
2023/12/13 11:19:19;;;;;;;10.32;2.05;;;25.00;99.90;;;;;;4976353;28;20200;-75
2023/12/13 11:21:51;;;;;;;8.75;2.28;;;25.10;99.90;;;;;;4976340;28;20703;-75
2023/12/13 11:24:28;;;;;;;11.05;2.45;;;25.20;99.90;;;;;;4975583;28;20197;-77
2023/12/13 11:27:00;;;;;;;9.25;2.63;;;25.20;99.90;;;;;;4957569;28;20571;-75
2023/12/13 11:29:32;;;;;;;9.38;2.50;;;25.30;99.90;;;;;;4966255;28;20703;-75
2023/12/13 11:32:04;;;;;;;8.85;2.80;;;25.40;99.90;;;;;;4968907;28;20201;-75
2023/12/13 11:34:38;;;;;;;11.02;3.22;;;25.50;99.90;;;;;;4956652;28;20190;-73
2023/12/13 11:37:10;;;;;;;10.68;3.00;;;25.50;99.90;;;;;;4965694;28;20203;-75
2023/12/13 11:39:43;;;;;;;8.48;3.00;;;25.50;99.90;;;;;;4974391;28;20320;-74
2023/12/13 11:42:17;;;;;;;12.10;3.22;;;25.50;99.90;;;;;;4956674;28;20217;-75
2023/12/13 11:44:50;;;;;;;9.30;2.83;;;25.50;99.90;;;;;;4956896;28;20538;-75
2023/12/13 11:47:21;;;;;;;13.13;3.05;;;25.50;99.90;;;;;;4964352;28;20200;-75
2023/12/13 11:49:51;;;;;;;9.23;2.80;;;25.40;99.90;;;;;;4966165;28;20203;-74
2023/12/13 11:52:22;;;;;;;10.43;3.08;;;25.30;99.90;;;;;;4975884;28;20210;-75
2023/12/13 11:54:56;;;;;;;8.75;2.53;;;25.20;99.90;;;;;;4975752;28;20192;-75
2023/12/13 11:57:27;;;;;;;10.73;2.95;;;25.20;99.90;;;;;;4976051;28;20540;-75
2023/12/13 11:59:58;;;;;;;11.32;2.58;;;25.10;99.90;;;;;;4975666;28;20551;-74
2023/12/13 12:02:29;;;;;;;10.90;3.05;;;25.10;99.90;;;;;;4975973;28;20195;-74
2023/12/13 12:05:02;;;;;;;13.52;3.00;;;25.00;99.90;;;;;;4975836;28;20192;-76
2023/12/13 12:07:32;;;;;;;9.20;2.65;;;25.00;99.90;;;;;;4975639;28;20711;-75
2023/12/13 12:10:07;;;;;;;7.93;3.13;;;24.90;99.90;;;;;;4965052;28;20197;-75
2023/12/13 12:12:38;;;;;;;14.48;3.65;;;24.80;99.90;;;;;;4965067;28;20208;-76
2023/12/13 12:15:14;;;;;;;12.40;3.38;;;24.60;99.90;;;;;;4975789;28;20284;-76
2023/12/13 12:17:45;;;;;;;13.00;3.20;;;24.40;99.90;;;;;;4975258;28;20192;-75
2023/12/13 12:20:17;;;;;;;14.07;3.28;;;24.30;99.90;;;;;;4964355;28;20299;-77
2023/12/13 12:22:50;;;;;;;12.68;4.10;;;24.30;99.90;;;;;;4955867;28;20236;-75
2023/12/13 12:25:25;;;;;;;10.40;3.65;;;24.20;99.90;;;;;;4974604;28;20243;-76
2023/12/13 12:27:56;;;;;;;10.50;3.75;;;24.10;99.90;;;;;;4974885;28;20235;-77
2023/12/13 12:30:26;;;;;;;12.77;3.95;;;24.10;99.90;;;;;;4974622;28;20197;-76
2023/12/13 12:32:57;;;;;;;12.98;3.60;;;24.00;99.90;;;;;;4974943;28;20192;-76
2023/12/13 12:35:28;;;;;;;11.68;3.97;;;24.00;99.90;;;;;;4975036;28;20195;-76
2023/12/13 12:37:59;;;;;;;7.55;3.72;;;23.90;99.90;;;;;;4974438;28;20326;-75
2023/12/13 12:40:32;;;;;;;13.43;4.05;;;23.80;99.90;;;;;;4962167;28;20197;-76
2023/12/13 12:43:03;;;;;;;10.40;3.97;;;23.70;99.90;;;;;;4955718;28;20199;-75
2023/12/13 12:45:34;;;;;;;10.60;3.88;;;23.60;99.90;;;;;;4955806;28;20197;-76
2023/12/13 12:48:05;;;;;;;9.85;4.03;;;23.60;99.90;;;;;;4962060;28;20203;-76
2023/12/13 12:50:36;;;;;;;8.68;3.90;;;23.60;99.90;;;;;;4974842;28;20204;-75
2023/12/13 12:53:07;;;;;;;7.82;3.80;;;23.50;99.90;;;;;;4965503;28;20367;-75
2023/12/13 12:55:40;;;;;;;7.05;3.83;;;23.40;99.90;;;;;;4955639;28;20604;-75
2023/12/13 12:58:11;;;;;;;7.97;3.80;;;23.50;99.90;;;;;;4964979;28;20201;-75
2023/12/13 13:00:41;;;;;;;6.05;3.90;;;23.40;99.90;;;;;;4957153;28;20224;-76
2023/12/13 13:03:12;;;;;;;9.13;3.80;;;23.50;99.90;;;;;;4974388;28;20192;-75
2023/12/13 13:05:45;;;;;;;6.57;4.10;;;23.40;99.90;;;;;;4962663;28;20196;-76
2023/12/13 13:08:16;;;;;;;8.73;3.63;;;23.40;99.90;;;;;;4973805;28;20284;-74
2023/12/13 13:10:49;;;;;;;7.18;3.72;;;23.40;99.90;;;;;;4956809;28;20193;-76
2023/12/13 13:13:19;;;;;;;9.15;3.75;;;23.40;99.90;;;;;;4963172;28;20196;-75
2023/12/13 13:15:51;;;;;;;9.02;3.78;;;23.40;99.90;;;;;;4969929;28;20193;-77
2023/12/13 13:18:23;;;;;;;9.18;3.78;;;23.30;99.90;;;;;;4964668;28;20595;-77
2023/12/13 13:20:55;;;;;;;6.50;3.50;;;23.30;99.90;;;;;;4970103;28;20351;-76
2023/12/13 13:23:26;;;;;;;6.25;3.47;;;23.30;99.90;;;;;;4963805;28;20216;-76
2023/12/13 13:25:59;;;;;;;6.15;3.70;;;23.30;99.90;;;;;;4963497;28;20238;-74
2023/12/13 13:28:30;;;;;;;6.63;3.78;;;23.30;99.90;;;;;;4967480;28;20192;-75
2023/12/13 13:31:00;;;;;;;8.02;3.58;;;23.30;99.90;;;;;;4971941;28;20644;-75
2023/12/13 13:33:32;;;;;;;8.85;3.80;;;23.30;99.90;;;;;;4966887;28;20567;-76